sensor_id;sensor_type;location;lat;lon;timestamp;P1;durP1;ratioP1;P2;durP2;ratioP2
73575;SDS011;61859;49.204;8.140;2022-08-19T00:02:02;15.27;;;13.10;;
73575;SDS011;61859;49.204;8.140;2022-08-19T00:04:29;14.70;;;13.27;;
73575;SDS011;61859;49.204;8.140;2022-08-19T00:06:58;13.17;;;11.97;;
73575;SDS011;61859;49.204;8.140;2022-08-19T00:09:24;16.47;;;13.20;;
73575;SDS011;61859;49.204;8.140;2022-08-19T00:11:50;14.20;;;12.80;;
73575;SDS011;61859;49.204;8.140;2022-08-19T00:14:17;14.83;;;13.27;;
73575;SDS011;61859;49.204;8.140;2022-08-19T00:16:43;14.77;;;13.33;;
73575;SDS011;61859;49.204;8.140;2022-08-19T00:19:12;14.17;;;12.87;;
73575;SDS011;61859;49.204;8.140;2022-08-19T00:21:39;14.53;;;13.23;;
73575;SDS011;61859;49.204;8.140;2022-08-19T00:24:06;15.27;;;13.87;;
73575;SDS011;61859;49.204;8.140;2022-08-19T00:26:33;14.30;;;12.90;;
73575;SDS011;61859;49.204;8.140;2022-08-19T00:28:58;14.43;;;13.03;;
73575;SDS011;61859;49.204;8.140;2022-08-19T00:31:25;14.80;;;13.40;;
73575;SDS011;61859;49.204;8.140;2022-08-19T00:33:52;14.70;;;12.97;;
73575;SDS011;61859;49.204;8.140;2022-08-19T00:36:18;14.07;;;12.77;;
73575;SDS011;61859;49.204;8.140;2022-08-19T00:38:45;15.30;;;13.80;;
73575;SDS011;61859;49.204;8.140;2022-08-19T00:41:14;13.87;;;12.50;;
73575;SDS011;61859;49.204;8.140;2022-08-19T00:43:43;17.03;;;13.53;;
73575;SDS011;61859;49.204;8.140;2022-08-19T00:46:20;14.87;;;13.50;;
73575;SDS011;61859;49.204;8.140;2022-08-19T00:48:46;14.47;;;13.07;;
73575;SDS011;61859;49.204;8.140;2022-08-19T00:51:11;14.17;;;12.83;;
73575;SDS011;61859;49.204;8.140;2022-08-19T00:53:37;14.47;;;12.93;;
73575;SDS011;61859;49.204;8.140;2022-08-19T00:56:04;14.30;;;12.77;;
73575;SDS011;61859;49.204;8.140;2022-08-19T00:58:32;14.13;;;12.60;;
73575;SDS011;61859;49.204;8.140;2022-08-19T01:00:59;14.07;;;12.77;;
73575;SDS011;61859;49.204;8.140;2022-08-19T01:03:25;14.07;;;12.70;;
73575;SDS011;61859;49.204;8.140;2022-08-19T01:05:51;15.37;;;13.17;;
73575;SDS011;61859;49.204;8.140;2022-08-19T01:08:18;13.80;;;12.50;;
73575;SDS011;61859;49.204;8.140;2022-08-19T01:10:46;14.03;;;12.73;;
73575;SDS011;61859;49.204;8.140;2022-08-19T01:13:15;13.50;;;11.70;;
73575;SDS011;61859;49.204;8.140;2022-08-19T01:15:43;13.80;;;12.50;;
73575;SDS011;61859;49.204;8.140;2022-08-19T01:18:13;14.30;;;12.90;;
73575;SDS011;61859;49.204;8.140;2022-08-19T01:20:42;13.80;;;12.33;;
73575;SDS011;61859;49.204;8.140;2022-08-19T01:23:07;13.30;;;12.00;;
73575;SDS011;61859;49.204;8.140;2022-08-19T01:25:44;14.03;;;12.63;;
73575;SDS011;61859;49.204;8.140;2022-08-19T01:28:18;15.13;;;13.70;;
73575;SDS011;61859;49.204;8.140;2022-08-19T01:30:46;14.27;;;12.90;;
73575;SDS011;61859;49.204;8.140;2022-08-19T01:33:12;14.03;;;12.60;;
73575;SDS011;61859;49.204;8.140;2022-08-19T01:35:38;13.60;;;12.30;;
73575;SDS011;61859;49.204;8.140;2022-08-19T01:38:05;14.20;;;12.80;;
73575;SDS011;61859;49.204;8.140;2022-08-19T01:40:34;13.70;;;12.50;;
73575;SDS011;61859;49.204;8.140;2022-08-19T01:43:01;14.63;;;13.33;;
73575;SDS011;61859;49.204;8.140;2022-08-19T01:45:29;14.67;;;13.17;;
73575;SDS011;61859;49.204;8.140;2022-08-19T01:47:57;13.73;;;12.37;;
73575;SDS011;61859;49.204;8.140;2022-08-19T01:50:24;14.60;;;13.10;;
73575;SDS011;61859;49.204;8.140;2022-08-19T01:52:50;14.30;;;12.90;;
73575;SDS011;61859;49.204;8.140;2022-08-19T01:55:20;14.50;;;13.00;;
73575;SDS011;61859;49.204;8.140;2022-08-19T01:57:49;14.43;;;13.03;;
73575;SDS011;61859;49.204;8.140;2022-08-19T02:00:20;14.33;;;12.93;;
73575;SDS011;61859;49.204;8.140;2022-08-19T02:02:48;14.17;;;12.57;;
73575;SDS011;61859;49.204;8.140;2022-08-19T02:05:13;14.63;;;13.33;;
73575;SDS011;61859;49.204;8.140;2022-08-19T02:07:40;14.53;;;13.17;;
73575;SDS011;61859;49.204;8.140;2022-08-19T02:10:07;14.90;;;13.47;;
73575;SDS011;61859;49.204;8.140;2022-08-19T02:12:37;15.37;;;13.77;;
73575;SDS011;61859;49.204;8.140;2022-08-19T02:15:02;15.30;;;13.80;;
73575;SDS011;61859;49.204;8.140;2022-08-19T02:17:29;15.33;;;13.73;;
73575;SDS011;61859;49.204;8.140;2022-08-19T02:19:55;16.30;;;14.63;;
73575;SDS011;61859;49.204;8.140;2022-08-19T02:22:21;15.87;;;14.13;;
73575;SDS011;61859;49.204;8.140;2022-08-19T02:24:48;14.53;;;13.13;;
73575;SDS011;61859;49.204;8.140;2022-08-19T02:27:13;15.47;;;13.97;;
73575;SDS011;61859;49.204;8.140;2022-08-19T02:29:39;15.50;;;14.10;;
73575;SDS011;61859;49.204;8.140;2022-08-19T02:32:06;15.03;;;13.60;;
73575;SDS011;61859;49.204;8.140;2022-08-19T02:34:32;14.87;;;13.47;;
73575;SDS011;61859;49.204;8.140;2022-08-19T02:36:58;15.30;;;13.90;;
73575;SDS011;61859;49.204;8.140;2022-08-19T02:39:23;15.17;;;13.77;;
73575;SDS011;61859;49.204;8.140;2022-08-19T02:41:49;15.33;;;13.93;;
73575;SDS011;61859;49.204;8.140;2022-08-19T02:44:15;15.40;;;14.00;;
73575;SDS011;61859;49.204;8.140;2022-08-19T02:46:41;15.80;;;14.40;;
73575;SDS011;61859;49.204;8.140;2022-08-19T02:49:08;14.77;;;13.33;;
73575;SDS011;61859;49.204;8.140;2022-08-19T02:51:35;16.03;;;14.33;;
73575;SDS011;61859;49.204;8.140;2022-08-19T02:54:03;15.33;;;13.93;;
73575;SDS011;61859;49.204;8.140;2022-08-19T02:56:30;14.97;;;13.57;;
73575;SDS011;61859;49.204;8.140;2022-08-19T02:58:55;16.07;;;14.47;;
73575;SDS011;61859;49.204;8.140;2022-08-19T03:01:26;15.30;;;13.70;;
73575;SDS011;61859;49.204;8.140;2022-08-19T03:03:54;16.67;;;14.97;;
73575;SDS011;61859;49.204;8.140;2022-08-19T03:06:20;15.80;;;14.27;;
73575;SDS011;61859;49.204;8.140;2022-08-19T03:08:47;17.17;;;15.37;;
73575;SDS011;61859;49.204;8.140;2022-08-19T03:11:14;17.00;;;15.30;;
73575;SDS011;61859;49.204;8.140;2022-08-19T03:13:41;16.37;;;14.67;;
73575;SDS011;61859;49.204;8.140;2022-08-19T03:16:08;16.73;;;14.80;;
73575;SDS011;61859;49.204;8.140;2022-08-19T03:18:35;16.07;;;14.37;;
73575;SDS011;61859;49.204;8.140;2022-08-19T03:21:00;15.57;;;14.17;;
73575;SDS011;61859;49.204;8.140;2022-08-19T03:23:26;15.63;;;14.13;;
73575;SDS011;61859;49.204;8.140;2022-08-19T03:25:52;15.43;;;13.93;;
73575;SDS011;61859;49.204;8.140;2022-08-19T03:28:19;15.50;;;14.00;;
73575;SDS011;61859;49.204;8.140;2022-08-19T03:31:07;15.43;;;14.03;;
73575;SDS011;61859;49.204;8.140;2022-08-19T03:33:33;14.90;;;13.53;;
73575;SDS011;61859;49.204;8.140;2022-08-19T03:36:03;16.37;;;14.70;;
73575;SDS011;61859;49.204;8.140;2022-08-19T03:38:33;15.27;;;13.73;;
73575;SDS011;61859;49.204;8.140;2022-08-19T03:41:07;15.37;;;13.80;;
73575;SDS011;61859;49.204;8.140;2022-08-19T03:43:54;16.83;;;14.47;;
73575;SDS011;61859;49.204;8.140;2022-08-19T03:46:26;15.03;;;13.63;;
73575;SDS011;61859;49.204;8.140;2022-08-19T03:48:55;14.83;;;13.53;;
73575;SDS011;61859;49.204;8.140;2022-08-19T03:51:26;15.83;;;13.50;;
73575;SDS011;61859;49.204;8.140;2022-08-19T03:53:54;14.27;;;12.87;;
73575;SDS011;61859;49.204;8.140;2022-08-19T03:56:20;13.37;;;12.17;;
73575;SDS011;61859;49.204;8.140;2022-08-19T03:58:46;14.03;;;12.73;;
73575;SDS011;61859;49.204;8.140;2022-08-19T04:01:13;14.13;;;12.37;;
73575;SDS011;61859;49.204;8.140;2022-08-19T04:03:42;13.70;;;12.40;;
73575;SDS011;61859;49.204;8.140;2022-08-19T04:08:49;12.63;;;11.43;;
73575;SDS011;61859;49.204;8.140;2022-08-19T04:11:17;13.67;;;12.43;;
73575;SDS011;61859;49.204;8.140;2022-08-19T04:13:46;13.07;;;11.53;;
73575;SDS011;61859;49.204;8.140;2022-08-19T04:16:13;12.63;;;11.53;;
73575;SDS011;61859;49.204;8.140;2022-08-19T04:18:39;12.37;;;11.27;;
73575;SDS011;61859;49.204;8.140;2022-08-19T04:21:06;11.57;;;10.57;;
73575;SDS011;61859;49.204;8.140;2022-08-19T04:23:32;11.67;;;10.67;;
73575;SDS011;61859;49.204;8.140;2022-08-19T04:25:58;12.00;;;10.87;;
73575;SDS011;61859;49.204;8.140;2022-08-19T04:28:24;12.00;;;11.00;;
73575;SDS011;61859;49.204;8.140;2022-08-19T04:30:51;12.53;;;11.37;;
73575;SDS011;61859;49.204;8.140;2022-08-19T04:33:19;12.50;;;11.30;;
73575;SDS011;61859;49.204;8.140;2022-08-19T04:35:50;12.23;;;11.10;;
73575;SDS011;61859;49.204;8.140;2022-08-19T04:38:18;11.57;;;10.47;;
73575;SDS011;61859;49.204;8.140;2022-08-19T04:40:49;10.90;;;9.93;;
73575;SDS011;61859;49.204;8.140;2022-08-19T04:43:35;11.80;;;10.70;;
73575;SDS011;61859;49.204;8.140;2022-08-19T04:46:06;12.13;;;10.77;;
73575;SDS011;61859;49.204;8.140;2022-08-19T04:48:31;10.77;;;9.73;;
73575;SDS011;61859;49.204;8.140;2022-08-19T04:50:58;11.17;;;10.17;;
73575;SDS011;61859;49.204;8.140;2022-08-19T04:53:24;10.33;;;9.37;;
73575;SDS011;61859;49.204;8.140;2022-08-19T04:55:53;11.03;;;9.97;;
73575;SDS011;61859;49.204;8.140;2022-08-19T04:58:24;10.97;;;9.87;;
73575;SDS011;61859;49.204;8.140;2022-08-19T05:00:51;10.93;;;9.93;;
73575;SDS011;61859;49.204;8.140;2022-08-19T05:03:17;12.23;;;10.10;;
73575;SDS011;61859;49.204;8.140;2022-08-19T05:05:44;11.87;;;10.23;;
73575;SDS011;61859;49.204;8.140;2022-08-19T05:08:13;11.07;;;9.97;;
73575;SDS011;61859;49.204;8.140;2022-08-19T05:10:44;11.27;;;10.10;;
73575;SDS011;61859;49.204;8.140;2022-08-19T05:13:16;10.37;;;9.50;;
73575;SDS011;61859;49.204;8.140;2022-08-19T05:15:43;11.53;;;10.23;;
73575;SDS011;61859;49.204;8.140;2022-08-19T05:18:09;11.13;;;10.03;;
73575;SDS011;61859;49.204;8.140;2022-08-19T05:20:54;11.37;;;10.20;;
73575;SDS011;61859;49.204;8.140;2022-08-19T05:23:38;11.70;;;9.93;;
73575;SDS011;61859;49.204;8.140;2022-08-19T05:26:04;11.33;;;10.17;;
73575;SDS011;61859;49.204;8.140;2022-08-19T05:28:29;10.53;;;9.57;;
73575;SDS011;61859;49.204;8.140;2022-08-19T05:30:55;10.57;;;9.67;;
73575;SDS011;61859;49.204;8.140;2022-08-19T05:33:21;10.27;;;9.33;;
73575;SDS011;61859;49.204;8.140;2022-08-19T05:35:49;10.57;;;9.53;;
73575;SDS011;61859;49.204;8.140;2022-08-19T05:38:15;9.97;;;9.07;;
73575;SDS011;61859;49.204;8.140;2022-08-19T05:40:42;10.80;;;9.80;;
73575;SDS011;61859;49.204;8.140;2022-08-19T05:43:11;12.97;;;10.00;;
73575;SDS011;61859;49.204;8.140;2022-08-19T05:45:40;11.13;;;10.07;;
73575;SDS011;61859;49.204;8.140;2022-08-19T05:48:07;10.57;;;9.63;;
73575;SDS011;61859;49.204;8.140;2022-08-19T05:50:36;10.70;;;9.70;;
73575;SDS011;61859;49.204;8.140;2022-08-19T05:53:02;11.80;;;10.60;;
73575;SDS011;61859;49.204;8.140;2022-08-19T05:55:28;11.37;;;10.27;;
73575;SDS011;61859;49.204;8.140;2022-08-19T05:57:53;10.90;;;9.53;;
73575;SDS011;61859;49.204;8.140;2022-08-19T06:00:19;11.10;;;10.10;;
73575;SDS011;61859;49.204;8.140;2022-08-19T06:02:44;10.50;;;9.27;;
73575;SDS011;61859;49.204;8.140;2022-08-19T06:05:10;11.57;;;9.13;;
73575;SDS011;61859;49.204;8.140;2022-08-19T06:07:36;10.37;;;9.20;;
73575;SDS011;61859;49.204;8.140;2022-08-19T06:10:04;9.77;;;8.57;;
73575;SDS011;61859;49.204;8.140;2022-08-19T06:12:32;10.23;;;8.87;;
73575;SDS011;61859;49.204;8.140;2022-08-19T06:15:06;9.93;;;8.93;;
73575;SDS011;61859;49.204;8.140;2022-08-19T06:17:34;9.57;;;8.10;;
73575;SDS011;61859;49.204;8.140;2022-08-19T06:20:00;9.10;;;8.20;;
73575;SDS011;61859;49.204;8.140;2022-08-19T06:22:26;9.33;;;8.37;;
73575;SDS011;61859;49.204;8.140;2022-08-19T06:24:52;10.20;;;8.07;;
73575;SDS011;61859;49.204;8.140;2022-08-19T06:27:19;8.83;;;8.03;;
73575;SDS011;61859;49.204;8.140;2022-08-19T06:29:45;11.60;;;7.47;;
73575;SDS011;61859;49.204;8.140;2022-08-19T06:32:11;8.03;;;7.30;;
73575;SDS011;61859;49.204;8.140;2022-08-19T06:34:39;8.73;;;7.60;;
73575;SDS011;61859;49.204;8.140;2022-08-19T06:37:06;8.67;;;7.87;;
73575;SDS011;61859;49.204;8.140;2022-08-19T06:39:35;8.57;;;7.63;;
73575;SDS011;61859;49.204;8.140;2022-08-19T06:42:04;8.60;;;7.20;;
73575;SDS011;61859;49.204;8.140;2022-08-19T06:44:32;7.77;;;7.07;;
73575;SDS011;61859;49.204;8.140;2022-08-19T06:47:02;8.27;;;7.47;;
73575;SDS011;61859;49.204;8.140;2022-08-19T06:49:29;8.40;;;7.30;;
73575;SDS011;61859;49.204;8.140;2022-08-19T06:51:58;7.77;;;7.07;;
73575;SDS011;61859;49.204;8.140;2022-08-19T06:54:24;7.80;;;7.00;;
73575;SDS011;61859;49.204;8.140;2022-08-19T06:56:51;8.27;;;7.43;;
73575;SDS011;61859;49.204;8.140;2022-08-19T06:59:22;7.37;;;6.77;;
73575;SDS011;61859;49.204;8.140;2022-08-19T07:01:52;7.87;;;7.17;;
73575;SDS011;61859;49.204;8.140;2022-08-19T07:04:21;7.67;;;6.97;;
73575;SDS011;61859;49.204;8.140;2022-08-19T07:06:56;7.87;;;7.17;;
73575;SDS011;61859;49.204;8.140;2022-08-19T07:09:24;7.97;;;7.17;;
73575;SDS011;61859;49.204;8.140;2022-08-19T07:11:50;8.47;;;7.67;;
73575;SDS011;61859;49.204;8.140;2022-08-19T07:14:18;7.67;;;6.93;;
73575;SDS011;61859;49.204;8.140;2022-08-19T07:16:45;8.13;;;7.33;;
73575;SDS011;61859;49.204;8.140;2022-08-19T07:19:13;10.93;;;7.63;;
73575;SDS011;61859;49.204;8.140;2022-08-19T07:21:39;7.60;;;6.47;;
73575;SDS011;61859;49.204;8.140;2022-08-19T07:24:06;7.73;;;6.93;;
73575;SDS011;61859;49.204;8.140;2022-08-19T07:26:32;11.53;;;7.87;;
73575;SDS011;61859;49.204;8.140;2022-08-19T07:29:03;8.73;;;7.23;;
73575;SDS011;61859;49.204;8.140;2022-08-19T07:31:29;8.20;;;7.50;;
73575;SDS011;61859;49.204;8.140;2022-08-19T07:33:55;7.95;;;7.25;;
73575;SDS011;61859;49.204;8.140;2022-08-19T07:36:23;8.60;;;7.70;;
73575;SDS011;61859;49.204;8.140;2022-08-19T07:38:51;7.83;;;7.00;;
73575;SDS011;61859;49.204;8.140;2022-08-19T07:41:19;7.88;;;6.95;;
73575;SDS011;61859;49.204;8.140;2022-08-19T07:43:47;7.43;;;6.60;;
73575;SDS011;61859;49.204;8.140;2022-08-19T07:46:14;8.43;;;7.68;;
73575;SDS011;61859;49.204;8.140;2022-08-19T07:48:41;7.85;;;7.15;;
73575;SDS011;61859;49.204;8.140;2022-08-19T07:51:08;7.63;;;7.03;;
73575;SDS011;61859;49.204;8.140;2022-08-19T07:53:35;7.95;;;7.20;;
73575;SDS011;61859;49.204;8.140;2022-08-19T07:56:03;8.27;;;7.47;;
73575;SDS011;61859;49.204;8.140;2022-08-19T07:58:30;8.52;;;7.63;;
73575;SDS011;61859;49.204;8.140;2022-08-19T08:00:57;8.70;;;7.75;;
73575;SDS011;61859;49.204;8.140;2022-08-19T08:03:24;8.50;;;7.72;;
73575;SDS011;61859;49.204;8.140;2022-08-19T08:06:11;7.57;;;6.88;;
73575;SDS011;61859;49.204;8.140;2022-08-19T08:08:57;9.63;;;8.27;;
73575;SDS011;61859;49.204;8.140;2022-08-19T08:14:29;7.68;;;7.00;;
73575;SDS011;61859;49.204;8.140;2022-08-19T08:16:57;8.60;;;7.65;;
73575;SDS011;61859;49.204;8.140;2022-08-19T08:19:24;9.20;;;8.18;;
73575;SDS011;61859;49.204;8.140;2022-08-19T08:21:51;10.75;;;7.72;;
73575;SDS011;61859;49.204;8.140;2022-08-19T08:24:18;9.55;;;8.10;;
73575;SDS011;61859;49.204;8.140;2022-08-19T08:26:44;8.07;;;7.32;;
73575;SDS011;61859;49.204;8.140;2022-08-19T08:29:12;7.70;;;7.00;;
73575;SDS011;61859;49.204;8.140;2022-08-19T08:31:40;8.10;;;7.40;;
73575;SDS011;61859;49.204;8.140;2022-08-19T08:34:07;9.18;;;7.32;;
73575;SDS011;61859;49.204;8.140;2022-08-19T08:36:37;8.10;;;7.18;;
73575;SDS011;61859;49.204;8.140;2022-08-19T08:39:14;7.75;;;7.03;;
73575;SDS011;61859;49.204;8.140;2022-08-19T08:41:52;7.70;;;7.00;;
73575;SDS011;61859;49.204;8.140;2022-08-19T08:44:23;6.70;;;6.03;;
73575;SDS011;61859;49.204;8.140;2022-08-19T08:46:57;7.82;;;7.03;;
73575;SDS011;61859;49.204;8.140;2022-08-19T08:52:30;7.40;;;6.80;;
73575;SDS011;61859;49.204;8.140;2022-08-19T08:55:00;7.07;;;6.47;;
73575;SDS011;61859;49.204;8.140;2022-08-19T08:57:35;7.40;;;6.70;;
73575;SDS011;61859;49.204;8.140;2022-08-19T09:00:19;7.20;;;6.53;;
73575;SDS011;61859;49.204;8.140;2022-08-19T09:02:49;7.53;;;6.80;;
73575;SDS011;61859;49.204;8.140;2022-08-19T09:05:14;9.23;;;6.68;;
73575;SDS011;61859;49.204;8.140;2022-08-19T09:07:46;6.88;;;6.18;;
73575;SDS011;61859;49.204;8.140;2022-08-19T09:10:43;7.82;;;7.03;;
73575;SDS011;61859;49.204;8.140;2022-08-19T09:13:15;6.88;;;5.80;;
73575;SDS011;61859;49.204;8.140;2022-08-19T09:16:07;7.05;;;6.35;;
73575;SDS011;61859;49.204;8.140;2022-08-19T09:18:38;6.35;;;5.85;;
73575;SDS011;61859;49.204;8.140;2022-08-19T09:21:14;6.63;;;6.13;;
73575;SDS011;61859;49.204;8.140;2022-08-19T09:23:40;6.07;;;5.50;;
73575;SDS011;61859;49.204;8.140;2022-08-19T09:26:09;6.25;;;5.70;;
73575;SDS011;61859;49.204;8.140;2022-08-19T09:28:38;5.65;;;4.82;;
73575;SDS011;61859;49.204;8.140;2022-08-19T09:31:08;5.72;;;5.13;;
73575;SDS011;61859;49.204;8.140;2022-08-19T09:33:37;5.53;;;4.57;;
73575;SDS011;61859;49.204;8.140;2022-08-19T09:36:05;5.80;;;4.20;;
73575;SDS011;61859;49.204;8.140;2022-08-19T09:38:32;5.75;;;4.55;;
73575;SDS011;61859;49.204;8.140;2022-08-19T09:41:05;5.03;;;4.22;;
73575;SDS011;61859;49.204;8.140;2022-08-19T09:43:32;4.93;;;4.47;;
73575;SDS011;61859;49.204;8.140;2022-08-19T09:46:02;6.63;;;4.47;;
73575;SDS011;61859;49.204;8.140;2022-08-19T09:48:30;3.78;;;3.47;;
73575;SDS011;61859;49.204;8.140;2022-08-19T09:51:01;4.63;;;3.88;;
73575;SDS011;61859;49.204;8.140;2022-08-19T09:53:28;4.53;;;3.72;;
73575;SDS011;61859;49.204;8.140;2022-08-19T09:55:56;4.57;;;4.10;;
73575;SDS011;61859;49.204;8.140;2022-08-19T09:58:22;5.15;;;4.45;;
73575;SDS011;61859;49.204;8.140;2022-08-19T10:00:52;6.50;;;4.80;;
73575;SDS011;61859;49.204;8.140;2022-08-19T10:03:19;4.80;;;4.40;;
73575;SDS011;61859;49.204;8.140;2022-08-19T10:05:44;4.82;;;4.43;;
73575;SDS011;61859;49.204;8.140;2022-08-19T10:08:13;5.38;;;4.88;;
73575;SDS011;61859;49.204;8.140;2022-08-19T10:10:40;6.47;;;5.00;;
73575;SDS011;61859;49.204;8.140;2022-08-19T10:13:08;6.05;;;4.68;;
73575;SDS011;61859;49.204;8.140;2022-08-19T10:15:34;5.05;;;4.55;;
73575;SDS011;61859;49.204;8.140;2022-08-19T10:18:00;4.90;;;4.50;;
73575;SDS011;61859;49.204;8.140;2022-08-19T10:20:26;5.47;;;4.32;;
73575;SDS011;61859;49.204;8.140;2022-08-19T10:22:52;4.40;;;4.05;;
73575;SDS011;61859;49.204;8.140;2022-08-19T10:25:17;5.18;;;3.88;;
73575;SDS011;61859;49.204;8.140;2022-08-19T10:27:43;5.07;;;4.07;;
73575;SDS011;61859;49.204;8.140;2022-08-19T10:30:09;4.18;;;3.85;;
73575;SDS011;61859;49.204;8.140;2022-08-19T10:32:35;4.82;;;4.43;;
73575;SDS011;61859;49.204;8.140;2022-08-19T10:35:02;4.13;;;3.60;;
73575;SDS011;61859;49.204;8.140;2022-08-19T10:37:30;5.35;;;4.50;;
73575;SDS011;61859;49.204;8.140;2022-08-19T10:39:58;5.22;;;4.60;;
73575;SDS011;61859;49.204;8.140;2022-08-19T10:42:23;4.80;;;4.30;;
73575;SDS011;61859;49.204;8.140;2022-08-19T10:44:49;4.57;;;4.18;;
73575;SDS011;61859;49.204;8.140;2022-08-19T10:47:16;4.43;;;4.03;;
73575;SDS011;61859;49.204;8.140;2022-08-19T10:49:41;5.20;;;4.15;;
73575;SDS011;61859;49.204;8.140;2022-08-19T10:52:25;5.78;;;4.40;;
73575;SDS011;61859;49.204;8.140;2022-08-19T10:55:00;4.30;;;3.90;;
73575;SDS011;61859;49.204;8.140;2022-08-19T10:57:45;4.30;;;3.75;;
73575;SDS011;61859;49.204;8.140;2022-08-19T11:00:11;5.03;;;4.13;;
73575;SDS011;61859;49.204;8.140;2022-08-19T11:02:38;3.78;;;3.47;;
73575;SDS011;61859;49.204;8.140;2022-08-19T11:05:04;3.97;;;3.70;;
73575;SDS011;61859;49.204;8.140;2022-08-19T11:07:31;5.20;;;4.20;;
73575;SDS011;61859;49.204;8.140;2022-08-19T11:09:57;4.47;;;4.18;;
73575;SDS011;61859;49.204;8.140;2022-08-19T11:12:23;5.60;;;3.83;;
73575;SDS011;61859;49.204;8.140;2022-08-19T11:14:49;4.57;;;3.97;;
73575;SDS011;61859;49.204;8.140;2022-08-19T11:17:15;4.80;;;4.40;;
73575;SDS011;61859;49.204;8.140;2022-08-19T11:19:40;4.90;;;4.40;;
73575;SDS011;61859;49.204;8.140;2022-08-19T11:22:07;5.20;;;4.43;;
73575;SDS011;61859;49.204;8.140;2022-08-19T11:24:35;8.25;;;4.40;;
73575;SDS011;61859;49.204;8.140;2022-08-19T11:27:03;4.60;;;4.20;;
73575;SDS011;61859;49.204;8.140;2022-08-19T11:29:31;4.78;;;4.45;;
73575;SDS011;61859;49.204;8.140;2022-08-19T11:31:57;4.50;;;4.20;;
73575;SDS011;61859;49.204;8.140;2022-08-19T11:34:25;4.30;;;3.47;;
73575;SDS011;61859;49.204;8.140;2022-08-19T11:36:53;4.03;;;3.58;;
73575;SDS011;61859;49.204;8.140;2022-08-19T11:39:23;4.28;;;3.53;;
73575;SDS011;61859;49.204;8.140;2022-08-19T11:41:50;3.65;;;3.42;;
73575;SDS011;61859;49.204;8.140;2022-08-19T11:44:16;3.50;;;3.30;;
73575;SDS011;61859;49.204;8.140;2022-08-19T11:46:42;3.85;;;3.33;;
73575;SDS011;61859;49.204;8.140;2022-08-19T11:49:13;4.07;;;3.47;;
73575;SDS011;61859;49.204;8.140;2022-08-19T11:51:40;3.58;;;3.28;;
73575;SDS011;61859;49.204;8.140;2022-08-19T11:54:08;4.45;;;3.50;;
73575;SDS011;61859;49.204;8.140;2022-08-19T11:56:34;3.88;;;3.30;;
73575;SDS011;61859;49.204;8.140;2022-08-19T11:59:01;3.38;;;3.08;;
73575;SDS011;61859;49.204;8.140;2022-08-19T12:01:27;5.30;;;2.80;;
73575;SDS011;61859;49.204;8.140;2022-08-19T12:03:53;2.85;;;2.65;;
73575;SDS011;61859;49.204;8.140;2022-08-19T12:06:21;3.25;;;2.95;;
73575;SDS011;61859;49.204;8.140;2022-08-19T12:08:50;3.45;;;3.15;;
73575;SDS011;61859;49.204;8.140;2022-08-19T12:11:16;3.15;;;2.95;;
73575;SDS011;61859;49.204;8.140;2022-08-19T12:13:42;2.40;;;2.30;;
73575;SDS011;61859;49.204;8.140;2022-08-19T12:16:12;2.30;;;2.10;;
73575;SDS011;61859;49.204;8.140;2022-08-19T12:18:40;2.45;;;2.28;;
73575;SDS011;61859;49.204;8.140;2022-08-19T12:21:10;2.20;;;2.10;;
73575;SDS011;61859;49.204;8.140;2022-08-19T12:23:37;2.30;;;2.10;;
73575;SDS011;61859;49.204;8.140;2022-08-19T12:26:02;2.33;;;2.20;;
73575;SDS011;61859;49.204;8.140;2022-08-19T12:28:28;2.33;;;2.15;;
73575;SDS011;61859;49.204;8.140;2022-08-19T12:30:55;2.60;;;2.40;;
73575;SDS011;61859;49.204;8.140;2022-08-19T12:33:21;2.60;;;2.40;;
73575;SDS011;61859;49.204;8.140;2022-08-19T12:35:50;2.00;;;1.90;;
73575;SDS011;61859;49.204;8.140;2022-08-19T12:38:17;3.80;;;2.20;;
73575;SDS011;61859;49.204;8.140;2022-08-19T12:40:47;3.80;;;2.42;;
73575;SDS011;61859;49.204;8.140;2022-08-19T12:43:14;2.40;;;2.20;;
73575;SDS011;61859;49.204;8.140;2022-08-19T12:45:40;2.58;;;2.38;;
73575;SDS011;61859;49.204;8.140;2022-08-19T12:48:07;2.60;;;2.40;;
73575;SDS011;61859;49.204;8.140;2022-08-19T12:50:33;2.50;;;2.38;;
73575;SDS011;61859;49.204;8.140;2022-08-19T12:52:59;2.15;;;1.95;;
73575;SDS011;61859;49.204;8.140;2022-08-19T12:55:25;3.63;;;2.10;;
73575;SDS011;61859;49.204;8.140;2022-08-19T12:57:53;2.28;;;2.17;;
73575;SDS011;61859;49.204;8.140;2022-08-19T13:00:19;2.40;;;2.20;;
73575;SDS011;61859;49.204;8.140;2022-08-19T13:02:46;4.95;;;2.33;;
73575;SDS011;61859;49.204;8.140;2022-08-19T13:05:15;2.58;;;2.30;;
73575;SDS011;61859;49.204;8.140;2022-08-19T13:07:45;3.83;;;2.22;;
73575;SDS011;61859;49.204;8.140;2022-08-19T13:10:11;2.67;;;2.47;;
73575;SDS011;61859;49.204;8.140;2022-08-19T13:12:40;5.43;;;2.33;;
73575;SDS011;61859;49.204;8.140;2022-08-19T13:15:06;2.38;;;2.20;;
73575;SDS011;61859;49.204;8.140;2022-08-19T13:17:33;2.33;;;2.17;;
73575;SDS011;61859;49.204;8.140;2022-08-19T13:19:59;3.10;;;2.72;;
73575;SDS011;61859;49.204;8.140;2022-08-19T13:22:25;2.67;;;2.47;;
73575;SDS011;61859;49.204;8.140;2022-08-19T13:24:52;3.40;;;2.42;;
73575;SDS011;61859;49.204;8.140;2022-08-19T13:27:17;2.53;;;2.33;;
73575;SDS011;61859;49.204;8.140;2022-08-19T13:29:43;2.70;;;2.50;;
73575;SDS011;61859;49.204;8.140;2022-08-19T13:32:28;2.22;;;2.13;;
73575;SDS011;61859;49.204;8.140;2022-08-19T13:35:12;2.53;;;2.33;;
73575;SDS011;61859;49.204;8.140;2022-08-19T13:37:38;2.30;;;2.10;;
73575;SDS011;61859;49.204;8.140;2022-08-19T13:40:10;2.20;;;2.10;;
73575;SDS011;61859;49.204;8.140;2022-08-19T13:42:40;2.30;;;2.20;;
73575;SDS011;61859;49.204;8.140;2022-08-19T13:45:06;2.65;;;2.50;;
73575;SDS011;61859;49.204;8.140;2022-08-19T13:47:33;3.00;;;2.30;;
73575;SDS011;61859;49.204;8.140;2022-08-19T13:50:00;2.38;;;2.28;;
73575;SDS011;61859;49.204;8.140;2022-08-19T13:52:27;2.58;;;2.38;;
73575;SDS011;61859;49.204;8.140;2022-08-19T13:54:53;2.40;;;2.20;;
73575;SDS011;61859;49.204;8.140;2022-08-19T13:57:19;3.95;;;2.50;;
73575;SDS011;61859;49.204;8.140;2022-08-19T13:59:44;2.78;;;2.58;;
73575;SDS011;61859;49.204;8.140;2022-08-19T14:02:10;2.63;;;2.42;;
73575;SDS011;61859;49.204;8.140;2022-08-19T14:04:36;2.60;;;2.40;;
73575;SDS011;61859;49.204;8.140;2022-08-19T14:07:02;2.95;;;2.75;;
73575;SDS011;61859;49.204;8.140;2022-08-19T14:09:28;3.30;;;3.00;;
73575;SDS011;61859;49.204;8.140;2022-08-19T14:11:54;3.17;;;2.83;;
73575;SDS011;61859;49.204;8.140;2022-08-19T14:14:20;4.22;;;2.83;;
73575;SDS011;61859;49.204;8.140;2022-08-19T14:16:46;3.47;;;3.17;;
73575;SDS011;61859;49.204;8.140;2022-08-19T14:19:12;3.05;;;2.85;;
73575;SDS011;61859;49.204;8.140;2022-08-19T14:21:37;4.07;;;3.10;;
73575;SDS011;61859;49.204;8.140;2022-08-19T14:24:04;3.30;;;3.00;;
73575;SDS011;61859;49.204;8.140;2022-08-19T14:26:29;3.13;;;2.92;;
73575;SDS011;61859;49.204;8.140;2022-08-19T14:28:55;3.70;;;3.00;;
73575;SDS011;61859;49.204;8.140;2022-08-19T14:31:22;3.40;;;3.10;;
73575;SDS011;61859;49.204;8.140;2022-08-19T14:33:49;3.38;;;3.08;;
73575;SDS011;61859;49.204;8.140;2022-08-19T14:36:16;3.35;;;3.05;;
73575;SDS011;61859;49.204;8.140;2022-08-19T14:38:42;3.55;;;2.83;;
73575;SDS011;61859;49.204;8.140;2022-08-19T14:41:18;3.67;;;3.15;;
73575;SDS011;61859;49.204;8.140;2022-08-19T14:43:50;3.30;;;3.00;;
73575;SDS011;61859;49.204;8.140;2022-08-19T14:46:18;3.35;;;3.08;;
73575;SDS011;61859;49.204;8.140;2022-08-19T14:48:46;3.13;;;2.90;;
73575;SDS011;61859;49.204;8.140;2022-08-19T14:51:13;3.30;;;2.95;;
73575;SDS011;61859;49.204;8.140;2022-08-19T14:53:39;3.20;;;3.00;;